createdAt,value
2022-10-08T00:00:41.379Z,50.60
2022-10-08T00:01:41.402Z,55.91
2022-10-08T00:02:41.338Z,50.27
2022-10-08T00:03:41.349Z,64.94
2022-10-08T00:04:41.402Z,61.39
2022-10-08T00:05:41.319Z,59.14
2022-10-08T00:06:41.313Z,46.41
2022-10-08T00:07:41.366Z,47.53
2022-10-08T00:08:41.264Z,47.37
2022-10-08T00:09:41.282Z,58.17
2022-10-08T00:10:41.266Z,46.25
2022-10-08T00:11:41.276Z,57.52
2022-10-08T00:12:41.283Z,55.11
2022-10-08T00:13:41.250Z,62.68
2022-10-08T00:14:41.303Z,62.84
2022-10-08T00:15:41.202Z,54.46
2022-10-08T00:16:41.328Z,55.43
2022-10-08T00:17:41.271Z,58.97
2022-10-08T00:18:41.786Z,46.41
2022-10-08T00:19:41.198Z,46.73
2022-10-08T00:20:41.151Z,55.11
2022-10-08T00:21:41.151Z,54.46
2022-10-08T00:22:41.124Z,58.49
2022-10-08T00:23:41.103Z,56.24
2022-10-08T00:24:41.126Z,53.17
2022-10-08T00:25:41.108Z,47.05
2022-10-08T00:26:43.893Z,46.41
2022-10-08T00:27:42.108Z,49.79
2022-10-08T00:28:41.826Z,56.72
2022-10-08T00:29:41.075Z,50.43
2022-10-08T00:30:41.091Z,51.08
2022-10-08T00:31:41.141Z,51.88
2022-10-08T00:32:41.034Z,47.86
2022-10-08T00:33:41.032Z,46.25
2022-10-08T00:34:41.033Z,51.08
2022-10-08T00:35:41.016Z,52.37
2022-10-08T00:36:41.012Z,57.04
2022-10-08T00:37:40.976Z,60.10
2022-10-08T00:38:40.955Z,58.65
2022-10-08T00:39:40.995Z,47.05
2022-10-08T00:40:40.916Z,58.33
2022-10-08T00:41:41.917Z,50.27
2022-10-08T00:42:40.929Z,43.67
2022-10-08T00:43:40.940Z,61.87
2022-10-08T00:44:40.936Z,62.36
2022-10-08T00:45:40.905Z,47.70
2022-10-08T00:46:40.881Z,47.70
2022-10-08T00:47:40.851Z,58.81
2022-10-08T00:48:41.857Z,46.73
2022-10-08T00:49:40.876Z,46.57
2022-10-08T00:50:40.861Z,48.82
2022-10-08T00:51:40.829Z,48.98
2022-10-08T00:52:40.846Z,53.66
2022-10-08T00:53:40.801Z,45.44
2022-10-08T00:54:41.809Z,46.25
2022-10-08T00:55:43.656Z,53.66
2022-10-08T00:56:41.851Z,53.82
2022-10-08T00:57:40.771Z,60.26
2022-10-08T00:58:40.757Z,59.30
2022-10-08T00:59:40.752Z,49.47
2022-10-08T01:00:40.810Z,50.11
2022-10-08T01:01:40.746Z,55.75
2022-10-08T01:02:40.741Z,53.01
2022-10-08T01:03:40.722Z,59.30
2022-10-08T01:04:40.736Z,56.24
2022-10-08T01:05:40.690Z,55.91
2022-10-08T01:06:40.751Z,45.60
2022-10-08T01:07:40.661Z,44.31
2022-10-08T01:08:40.714Z,46.08
2022-10-08T01:09:40.726Z,56.24
2022-10-08T01:10:41.678Z,63.81
2022-10-08T01:11:41.666Z,65.58
2022-10-08T01:12:40.815Z,44.79
2022-10-08T01:13:40.618Z,48.82
2022-10-08T01:14:40.631Z,45.76
2022-10-08T01:15:40.605Z,61.23
2022-10-08T01:16:40.663Z,59.46
2022-10-08T01:17:40.577Z,46.73
2022-10-08T01:18:40.590Z,49.95
2022-10-08T01:19:40.574Z,52.85
2022-10-08T01:20:40.791Z,54.95
2022-10-08T01:21:41.309Z,44.31
2022-10-08T01:22:40.534Z,51.24
2022-10-08T01:23:40.509Z,43.99
2022-10-08T01:24:40.506Z,55.75
2022-10-08T01:25:40.515Z,45.92
2022-10-08T01:26:40.474Z,63.49
2022-10-08T01:27:40.524Z,59.46
2022-10-08T01:28:40.530Z,45.28
2022-10-08T01:29:40.455Z,59.46
2022-10-08T01:30:40.483Z,51.24
2022-10-08T01:31:40.594Z,51.72
2022-10-08T01:32:40.459Z,58.33
2022-10-08T01:33:40.415Z,51.72
2022-10-08T01:34:40.411Z,48.98
2022-10-08T01:35:41.234Z,47.70
2022-10-08T01:36:40.418Z,60.10
2022-10-08T01:37:40.463Z,62.36
2022-10-08T01:38:40.379Z,51.72
2022-10-08T01:39:40.330Z,53.50
2022-10-08T01:40:40.332Z,52.53
2022-10-08T01:41:40.442Z,56.07
2022-10-08T01:42:40.338Z,46.25
2022-10-08T01:43:40.355Z,65.10
2022-10-08T01:44:40.339Z,51.56
2022-10-08T01:45:40.331Z,58.17
2022-10-08T01:46:40.272Z,60.42
2022-10-08T01:47:40.813Z,46.25
2022-10-08T01:48:40.263Z,47.53
2022-10-08T01:49:40.243Z,49.15
2022-10-08T01:50:40.252Z,51.88
2022-10-08T01:51:40.267Z,45.44
2022-10-08T01:52:40.405Z,65.58
2022-10-08T01:53:40.224Z,53.82
2022-10-08T01:54:40.207Z,48.50
2022-10-08T01:55:40.792Z,51.72
2022-10-08T01:56:40.250Z,64.13
2022-10-08T01:57:40.260Z,49.95
2022-10-08T01:58:40.151Z,57.69
2022-10-08T01:59:40.174Z,49.79
2022-10-08T02:00:40.157Z,57.69
2022-10-08T02:01:40.152Z,58.81
2022-10-08T02:02:40.206Z,50.27
2022-10-08T02:03:40.135Z,49.95
2022-10-08T02:04:40.094Z,56.40
2022-10-08T02:05:40.128Z,57.52
2022-10-08T02:06:40.069Z,48.98
2022-10-08T02:07:40.154Z,64.78
2022-10-08T02:08:40.089Z,51.88
2022-10-08T02:09:40.110Z,46.89
2022-10-08T02:10:40.052Z,57.52
2022-10-08T02:11:40.044Z,59.78
2022-10-08T02:12:40.052Z,52.69
2022-10-08T02:13:40.030Z,48.98
2022-10-08T02:14:40.006Z,54.14
2022-10-08T02:15:40.004Z,45.12
2022-10-08T02:16:40.014Z,59.78
2022-10-08T02:17:40.001Z,48.82
2022-10-08T02:18:39.999Z,48.98
2022-10-08T02:19:39.959Z,60.10
2022-10-08T02:20:39.940Z,55.11
2022-10-08T02:21:39.939Z,59.62
2022-10-08T02:22:39.958Z,46.73
2022-10-08T02:23:39.934Z,59.78
2022-10-08T02:24:39.929Z,59.78
2022-10-08T02:25:39.867Z,45.12
2022-10-08T02:26:39.913Z,45.44
2022-10-08T02:27:39.902Z,46.89
2022-10-08T02:28:39.968Z,62.36
2022-10-08T02:29:39.818Z,55.91
2022-10-08T02:30:39.873Z,46.25
2022-10-08T02:31:39.862Z,63.97
2022-10-08T02:32:39.830Z,64.45
2022-10-08T02:33:39.785Z,47.86
2022-10-08T02:34:39.809Z,48.82
2022-10-08T02:35:39.796Z,57.36
2022-10-08T02:36:39.772Z,58.81
2022-10-08T02:37:39.769Z,48.98
2022-10-08T02:38:39.741Z,53.01
2022-10-08T02:39:40.807Z,48.98
2022-10-08T02:40:39.743Z,62.68
2022-10-08T02:41:39.753Z,50.60
2022-10-08T02:42:39.706Z,50.60
2022-10-08T02:43:39.705Z,59.94
2022-10-08T02:44:39.730Z,52.37
2022-10-08T02:45:39.800Z,53.17
2022-10-08T02:46:39.641Z,49.47
2022-10-08T02:47:39.682Z,62.20
2022-10-08T02:48:40.123Z,54.79
2022-10-08T02:49:39.685Z,58.33
2022-10-08T02:50:40.598Z,63.81
2022-10-08T02:51:39.587Z,62.84
2022-10-08T02:52:39.739Z,50.43
2022-10-08T02:53:39.571Z,48.18
2022-10-08T02:54:39.541Z,62.36
2022-10-08T02:55:39.581Z,59.94
2022-10-08T02:56:39.602Z,48.66
2022-10-08T02:57:39.542Z,58.65
2022-10-08T02:58:39.509Z,62.04
2022-10-08T02:59:39.474Z,58.65
2022-10-08T03:00:39.527Z,64.13
2022-10-08T03:01:40.304Z,52.37
2022-10-08T03:02:39.578Z,51.88
2022-10-08T03:03:39.483Z,60.59
2022-10-08T03:04:39.448Z,52.21
2022-10-08T03:05:39.420Z,56.40
2022-10-08T03:06:39.426Z,52.85
2022-10-08T03:07:39.431Z,58.17
2022-10-08T03:08:39.403Z,48.98
2022-10-08T03:09:39.384Z,57.69
2022-10-08T03:10:39.403Z,47.53
2022-10-08T03:11:39.364Z,59.30
2022-10-08T03:12:39.375Z,60.42
2022-10-08T03:13:39.359Z,61.71
2022-10-08T03:14:39.360Z,55.75
2022-10-08T03:15:40.112Z,52.85
2022-10-08T03:16:39.394Z,57.04
2022-10-08T03:17:39.303Z,65.58
2022-10-08T03:18:39.338Z,60.10
2022-10-08T03:19:39.334Z,63.16
2022-10-08T03:20:39.301Z,63.33
2022-10-08T03:21:39.261Z,59.30
2022-10-08T03:22:39.264Z,61.23
2022-10-08T03:23:39.264Z,50.27
2022-10-08T03:24:39.246Z,54.95
2022-10-08T03:25:39.240Z,56.07
2022-10-08T03:26:39.213Z,56.40
2022-10-08T03:27:39.215Z,59.14
2022-10-08T03:28:39.272Z,62.04
2022-10-08T03:29:39.201Z,61.23
2022-10-08T03:30:39.227Z,58.81
2022-10-08T03:31:39.228Z,67.19
2022-10-08T03:32:39.182Z,48.66
2022-10-08T03:33:39.157Z,67.35
2022-10-08T03:34:39.125Z,56.07
2022-10-08T03:35:39.135Z,55.43
2022-10-08T03:36:39.101Z,61.87
2022-10-08T03:37:39.116Z,64.45
2022-10-08T03:38:39.119Z,63.81
2022-10-08T03:39:39.104Z,61.87
2022-10-08T03:40:39.077Z,67.51
2022-10-08T03:41:39.044Z,59.62
2022-10-08T03:42:39.044Z,62.68
2022-10-08T03:43:39.110Z,65.10
2022-10-08T03:44:39.013Z,68.96
2022-10-08T03:45:40.037Z,53.98
2022-10-08T03:46:39.023Z,63.65
2022-10-08T03:47:38.985Z,64.45
2022-10-08T03:48:39.022Z,64.13
2022-10-08T03:49:38.969Z,66.06
2022-10-08T03:50:38.968Z,61.55
2022-10-08T03:51:38.937Z,65.58
2022-10-08T03:52:38.978Z,63.00
2022-10-08T03:53:38.950Z,65.10
2022-10-08T03:54:39.166Z,63.81
2022-10-08T03:55:39.618Z,60.91
2022-10-08T03:56:38.913Z,63.49
2022-10-08T03:57:38.852Z,55.59
2022-10-08T03:58:38.942Z,62.20
2022-10-08T03:59:38.895Z,62.68
2022-10-08T04:00:38.935Z,60.26
2022-10-08T04:01:38.957Z,64.45
2022-10-08T04:02:38.937Z,63.16
2022-10-08T04:03:38.865Z,59.78
2022-10-08T04:04:38.996Z,58.49
2022-10-08T04:05:38.935Z,62.52
2022-10-08T04:06:38.793Z,65.10
2022-10-08T04:07:38.778Z,63.49
2022-10-08T04:08:38.802Z,61.87
2022-10-08T04:09:38.794Z,66.55
2022-10-08T04:10:38.842Z,64.78
2022-10-08T04:11:38.761Z,65.10
2022-10-08T04:12:38.722Z,64.29
2022-10-08T04:13:38.899Z,56.72
2022-10-08T04:14:38.730Z,62.04
2022-10-08T04:15:38.825Z,64.94
2022-10-08T04:16:38.683Z,63.97
2022-10-08T04:17:38.692Z,63.81
2022-10-08T04:18:38.685Z,65.26
2022-10-08T04:19:38.651Z,56.72
2022-10-08T04:20:38.653Z,68.64
2022-10-08T04:21:39.663Z,67.84
2022-10-08T04:22:38.663Z,63.81
2022-10-08T04:23:38.633Z,66.71
2022-10-08T04:24:38.623Z,58.49
2022-10-08T04:25:38.619Z,64.45
2022-10-08T04:26:38.664Z,61.71
2022-10-08T04:27:38.639Z,65.10
2022-10-08T04:28:39.167Z,63.49
2022-10-08T04:29:39.572Z,67.03
2022-10-08T04:30:38.560Z,60.59
2022-10-08T04:31:38.553Z,64.45
2022-10-08T04:32:38.527Z,63.16
2022-10-08T04:33:38.512Z,66.06
2022-10-08T04:34:38.523Z,66.87
2022-10-08T04:35:38.515Z,69.61
2022-10-08T04:36:38.502Z,71.06
2022-10-08T04:37:38.484Z,70.09
2022-10-08T04:38:38.455Z,68.16
2022-10-08T04:39:38.495Z,71.38
2022-10-08T04:40:38.556Z,67.68
2022-10-08T04:41:38.472Z,66.87
2022-10-08T04:42:38.488Z,66.06
2022-10-08T04:43:38.430Z,67.68
2022-10-08T04:44:39.403Z,70.42
2022-10-08T04:45:38.379Z,65.74
2022-10-08T04:46:38.472Z,68.64
2022-10-08T04:47:38.369Z,67.19
2022-10-08T04:48:38.360Z,68.16
2022-10-08T04:49:38.356Z,65.42
2022-10-08T04:50:38.337Z,68.32
2022-10-08T04:51:38.337Z,61.39
2022-10-08T04:52:38.363Z,65.90
2022-10-08T04:53:38.321Z,66.06
2022-10-08T04:54:38.320Z,66.06
2022-10-08T04:55:38.281Z,64.78
2022-10-08T04:56:39.294Z,64.78
2022-10-08T04:57:38.269Z,66.23
2022-10-08T04:58:38.252Z,68.96
2022-10-08T04:59:49.194Z,65.58
2022-10-08T05:00:39.254Z,66.55
2022-10-08T05:01:38.292Z,63.81
2022-10-08T05:02:38.268Z,67.51
2022-10-08T05:03:38.164Z,63.65
2022-10-08T05:04:38.186Z,63.81
2022-10-08T05:05:38.177Z,68.80
2022-10-08T05:06:38.199Z,58.01
2022-10-08T05:07:38.173Z,62.52
2022-10-08T05:08:38.261Z,55.43
2022-10-08T05:09:38.115Z,67.84
2022-10-08T05:10:38.181Z,66.39
2022-10-08T05:11:38.189Z,63.81
2022-10-08T05:12:38.179Z,60.42
2022-10-08T05:13:38.094Z,63.00
2022-10-08T05:14:38.083Z,61.87
2022-10-08T05:15:38.144Z,64.94
2022-10-08T05:16:38.071Z,62.84
2022-10-08T05:17:38.047Z,67.51
2022-10-08T05:18:38.090Z,69.61
2022-10-08T05:19:38.041Z,70.42
2022-10-08T05:20:38.749Z,59.62
2022-10-08T05:21:38.005Z,69.93
2022-10-08T05:22:37.975Z,64.29
2022-10-08T05:23:37.975Z,66.06
2022-10-08T05:24:39.009Z,65.58
2022-10-08T05:25:37.984Z,62.68
2022-10-08T05:27:03.631Z,68.64
2022-10-08T05:27:40.153Z,65.90
2022-10-08T05:28:38.078Z,64.45
2022-10-08T05:29:37.978Z,60.75
2022-10-08T05:30:37.986Z,66.71
2022-10-08T05:31:37.944Z,66.55
2022-10-08T05:32:37.870Z,68.16
2022-10-08T05:33:38.082Z,64.13
2022-10-08T05:34:37.891Z,68.96
2022-10-08T05:35:37.839Z,64.61
2022-10-08T05:36:37.883Z,67.35
2022-10-08T05:37:37.830Z,66.23
2022-10-08T05:38:37.802Z,66.23
2022-10-08T05:39:37.802Z,64.94
2022-10-08T05:40:37.822Z,69.45
2022-10-08T05:41:37.776Z,65.26
2022-10-08T05:42:37.763Z,70.74
2022-10-08T05:43:37.746Z,68.96
2022-10-08T05:44:37.996Z,69.45
2022-10-08T05:45:39.532Z,68.48
2022-10-08T05:46:37.776Z,63.81
2022-10-08T05:47:37.712Z,63.33
2022-10-08T05:48:37.707Z,65.90
2022-10-08T05:49:37.689Z,63.81
2022-10-08T05:50:37.808Z,64.45
2022-10-08T05:51:37.656Z,66.39
2022-10-08T05:52:37.635Z,64.94
2022-10-08T05:53:37.669Z,65.26
2022-10-08T05:54:37.645Z,69.61
2022-10-08T05:55:37.623Z,67.51
2022-10-08T05:56:37.603Z,65.26
2022-10-08T05:57:37.860Z,65.58
2022-10-08T05:58:37.552Z,67.84
2022-10-08T05:59:37.555Z,66.06
2022-10-08T06:00:37.561Z,65.10
2022-10-08T06:01:37.520Z,69.13
2022-10-08T06:02:37.559Z,68.48
2022-10-08T06:03:37.767Z,67.35
2022-10-08T06:04:37.520Z,69.29
2022-10-08T06:05:37.488Z,65.10
2022-10-08T06:06:37.459Z,63.00
2022-10-08T06:07:37.500Z,66.39
2022-10-08T06:08:37.466Z,64.13
2022-10-08T06:09:37.475Z,65.10
2022-10-08T06:10:37.451Z,68.16
2022-10-08T06:11:37.423Z,64.94
2022-10-08T06:12:37.404Z,64.78
2022-10-08T06:13:37.432Z,65.90
2022-10-08T06:14:37.372Z,61.39
2022-10-08T06:15:37.397Z,60.75
2022-10-08T06:16:37.476Z,64.94
2022-10-08T06:17:37.344Z,66.55
2022-10-08T06:18:37.469Z,63.33
2022-10-08T06:19:37.332Z,68.16
2022-10-08T06:20:37.297Z,65.58
2022-10-08T06:21:37.317Z,68.16
2022-10-08T06:22:37.420Z,69.77
2022-10-08T06:23:37.265Z,63.16
2022-10-08T06:24:37.261Z,68.80
2022-10-08T06:25:37.277Z,67.51
2022-10-08T06:26:37.232Z,65.58
2022-10-08T06:27:37.302Z,59.30
2022-10-08T06:28:37.333Z,65.42
2022-10-08T06:29:37.209Z,68.00
2022-10-08T06:30:37.260Z,69.13
2022-10-08T06:31:37.348Z,64.61
2022-10-08T06:32:37.174Z,67.35
2022-10-08T06:33:37.177Z,67.19
2022-10-08T06:34:37.200Z,61.07
2022-10-08T06:35:37.137Z,65.58
2022-10-08T06:36:37.187Z,66.06
2022-10-08T06:37:37.166Z,65.90
2022-10-08T06:38:37.111Z,61.39
2022-10-08T06:39:37.094Z,61.07
2022-10-08T06:40:37.074Z,66.87
2022-10-08T06:41:37.100Z,67.03
2022-10-08T06:42:38.107Z,65.10
2022-10-08T06:43:37.068Z,66.39
2022-10-08T06:44:37.038Z,67.84
2022-10-08T06:45:37.090Z,66.55
2022-10-08T06:46:37.065Z,67.35
2022-10-08T06:47:37.040Z,68.32
2022-10-08T06:48:36.996Z,68.00
2022-10-08T06:49:36.998Z,63.81
2022-10-08T06:50:37.002Z,67.68
2022-10-08T06:51:37.097Z,59.30
2022-10-08T06:52:37.072Z,62.84
2022-10-08T06:53:37.077Z,66.71
2022-10-08T06:54:37.010Z,64.29
2022-10-08T06:55:36.946Z,64.13
2022-10-08T06:56:37.013Z,66.06
2022-10-08T06:57:37.035Z,65.58
2022-10-08T06:58:36.975Z,65.58
2022-10-08T06:59:36.940Z,61.55
2022-10-08T07:00:37.032Z,64.13
2022-10-08T07:01:37.093Z,64.29
2022-10-08T07:02:37.298Z,63.97
2022-10-08T07:03:36.841Z,61.23
2022-10-08T07:04:36.896Z,63.81
2022-10-08T07:05:36.891Z,62.04
2022-10-08T07:06:36.885Z,67.35
2022-10-08T07:07:36.859Z,67.19
2022-10-08T07:08:36.888Z,65.58
2022-10-08T07:09:36.803Z,66.06
2022-10-08T07:10:36.852Z,66.87
2022-10-08T07:11:36.819Z,64.13
2022-10-08T07:12:36.770Z,68.16
2022-10-08T07:13:36.782Z,67.03
2022-10-08T07:14:36.852Z,64.13
2022-10-08T07:15:36.773Z,63.65
2022-10-08T07:16:36.903Z,69.13
2022-10-08T07:17:36.782Z,64.45
2022-10-08T07:18:36.751Z,66.87
2022-10-08T07:19:36.707Z,66.87
2022-10-08T07:20:36.755Z,66.55
2022-10-08T07:21:36.727Z,67.68
2022-10-08T07:22:36.670Z,71.70
2022-10-08T07:23:36.635Z,68.80
2022-10-08T07:24:36.638Z,66.87
2022-10-08T07:25:36.686Z,67.51
2022-10-08T07:26:36.613Z,64.78
2022-10-08T07:27:37.991Z,59.94
2022-10-08T07:28:36.711Z,68.00
2022-10-08T07:29:36.631Z,63.97
2022-10-08T07:30:36.571Z,60.59
2022-10-08T07:31:36.689Z,63.97
2022-10-08T07:32:36.603Z,66.23
2022-10-08T07:33:36.567Z,66.55
2022-10-08T07:34:36.534Z,65.74
2022-10-08T07:35:36.575Z,60.59
2022-10-08T07:36:36.547Z,64.61
2022-10-08T07:37:36.468Z,68.64
2022-10-08T07:38:36.578Z,66.87
2022-10-08T07:39:36.559Z,68.80
2022-10-08T07:40:36.492Z,68.32
2022-10-08T07:41:36.475Z,64.78
2022-10-08T07:42:36.512Z,68.32
2022-10-08T07:43:36.468Z,65.90
2022-10-08T07:44:36.500Z,69.13
2022-10-08T07:45:36.512Z,66.06
2022-10-08T07:46:36.437Z,68.80
2022-10-08T07:47:36.423Z,66.71
2022-10-08T07:48:36.409Z,68.96
2022-10-08T07:49:36.388Z,66.71
2022-10-08T07:50:36.428Z,68.16
2022-10-08T07:51:36.329Z,64.13
2022-10-08T07:52:36.347Z,68.00
2022-10-08T07:53:36.356Z,66.39
2022-10-08T07:54:36.344Z,66.87
2022-10-08T07:55:36.359Z,67.51
2022-10-08T07:56:36.325Z,68.00
2022-10-08T07:57:36.311Z,67.68
2022-10-08T07:58:36.459Z,68.32
2022-10-08T07:59:36.301Z,63.81
2022-10-08T08:00:36.376Z,63.81
2022-10-08T08:01:36.233Z,60.10
2022-10-08T08:02:36.306Z,66.87
2022-10-08T08:03:36.264Z,65.10
2022-10-08T08:04:36.231Z,63.33
2022-10-08T08:05:36.241Z,65.26
2022-10-08T08:06:36.194Z,65.58
2022-10-08T08:07:36.174Z,66.71
2022-10-08T08:08:36.136Z,67.03
2022-10-08T08:09:36.213Z,63.97
2022-10-08T08:10:36.153Z,61.07
2022-10-08T08:11:36.164Z,68.00
2022-10-08T08:12:36.197Z,70.42
2022-10-08T08:13:37.473Z,68.64
2022-10-08T08:14:37.131Z,68.48
2022-10-08T08:15:36.109Z,66.39
2022-10-08T08:16:36.215Z,69.13
2022-10-08T08:17:36.109Z,68.48
2022-10-08T08:18:36.110Z,63.97
2022-10-08T08:19:36.109Z,68.16
2022-10-08T08:20:36.237Z,68.96
2022-10-08T08:21:36.075Z,69.29
2022-10-08T08:22:36.085Z,68.96
2022-10-08T08:23:36.019Z,68.64
2022-10-08T08:24:35.978Z,67.03
2022-10-08T08:25:36.006Z,69.77
2022-10-08T08:26:36.060Z,64.61
2022-10-08T08:27:35.976Z,68.80
2022-10-08T08:28:36.082Z,69.61
2022-10-08T08:29:35.982Z,69.45
2022-10-08T08:30:35.930Z,70.42
2022-10-08T08:31:36.021Z,67.51
2022-10-08T08:32:35.978Z,69.29
2022-10-08T08:33:35.944Z,68.80
2022-10-08T08:34:35.841Z,68.96
2022-10-08T08:35:35.918Z,66.71
2022-10-08T08:36:35.978Z,68.64
2022-10-08T08:37:35.959Z,70.42
2022-10-08T08:38:35.890Z,66.39
2022-10-08T08:39:36.050Z,72.19
2022-10-08T08:40:36.024Z,70.90
2022-10-08T08:41:36.066Z,68.32
2022-10-08T08:42:36.002Z,68.48
2022-10-08T08:43:35.940Z,70.90
2022-10-08T08:44:35.813Z,70.09
2022-10-08T08:45:46.344Z,70.90
2022-10-08T08:46:37.982Z,70.90
2022-10-08T08:47:35.879Z,66.87
2022-10-08T08:48:35.775Z,69.13
2022-10-08T08:49:35.867Z,65.10
2022-10-08T08:50:35.823Z,68.64
2022-10-08T08:51:35.800Z,67.68
2022-10-08T08:52:36.112Z,67.19
2022-10-08T08:53:35.790Z,68.96
2022-10-08T08:54:36.782Z,70.25
2022-10-08T08:55:35.680Z,71.38
2022-10-08T08:56:35.739Z,69.45
2022-10-08T08:57:35.899Z,66.06
2022-10-08T08:58:35.848Z,69.13
2022-10-08T08:59:35.728Z,67.68
2022-10-08T09:00:35.605Z,72.19
2022-10-08T09:01:36.046Z,69.45
2022-10-08T09:02:35.676Z,68.64
2022-10-08T09:03:35.731Z,67.51
2022-10-08T09:04:35.648Z,67.84
2022-10-08T09:05:35.742Z,69.93
2022-10-08T09:06:35.673Z,68.64
2022-10-08T09:07:36.149Z,68.96
2022-10-08T09:08:35.975Z,70.09
2022-10-08T09:09:35.649Z,69.45
2022-10-08T09:10:35.644Z,71.87
2022-10-08T09:11:37.685Z,69.29
2022-10-08T09:12:35.500Z,69.77
2022-10-08T09:13:35.516Z,69.61
2022-10-08T09:14:35.508Z,66.23
2022-10-08T09:15:35.620Z,68.32
2022-10-08T09:16:35.826Z,69.45
2022-10-08T09:17:35.580Z,68.16
2022-10-08T09:18:35.537Z,71.70
2022-10-08T09:19:35.508Z,69.61
2022-10-08T09:20:39.977Z,70.74
2022-10-08T09:21:36.766Z,71.38
2022-10-08T09:22:35.449Z,69.29
2022-10-08T09:23:35.432Z,69.13
2022-10-08T09:24:35.522Z,69.61
2022-10-08T09:25:35.538Z,68.80
2022-10-08T09:26:35.485Z,73.80
2022-10-08T09:27:35.488Z,67.19
2022-10-08T09:28:35.396Z,67.68
2022-10-08T09:29:35.965Z,72.03
2022-10-08T09:30:35.431Z,71.06
2022-10-08T09:31:35.741Z,72.35
2022-10-08T09:32:35.497Z,69.13
2022-10-08T09:33:35.481Z,68.16
2022-10-08T09:34:35.378Z,69.13
2022-10-08T09:35:35.310Z,65.74
2022-10-08T09:36:35.655Z,70.25
2022-10-08T09:37:35.296Z,68.16
2022-10-08T09:38:35.417Z,68.16
2022-10-08T09:39:35.856Z,68.80
2022-10-08T09:40:35.301Z,68.32
2022-10-08T09:41:35.289Z,69.61
2022-10-08T09:42:36.006Z,66.87
2022-10-08T09:43:35.301Z,63.00
2022-10-08T09:44:35.249Z,68.80
2022-10-08T09:45:35.333Z,69.13
2022-10-08T09:46:36.270Z,67.51
2022-10-08T09:47:35.753Z,68.48
2022-10-08T09:48:35.289Z,69.13
2022-10-08T09:49:35.295Z,68.64
2022-10-08T09:50:35.181Z,69.61
2022-10-08T09:51:35.285Z,69.29
2022-10-08T09:52:35.126Z,68.96
2022-10-08T09:53:35.404Z,68.00
2022-10-08T09:54:35.155Z,64.94
2022-10-08T09:55:35.189Z,68.64
2022-10-08T09:56:35.102Z,68.48
2022-10-08T09:57:35.238Z,67.68
2022-10-08T09:58:35.200Z,69.29
2022-10-08T09:59:35.186Z,67.19
2022-10-08T10:00:35.110Z,71.06
2022-10-08T10:01:35.156Z,70.25
2022-10-08T10:02:35.351Z,67.03
2022-10-08T10:03:35.273Z,71.87
2022-10-08T10:04:35.266Z,70.42
2022-10-08T10:05:35.170Z,68.80
2022-10-08T10:06:35.758Z,68.16
2022-10-08T10:07:35.121Z,67.84
2022-10-08T10:08:34.959Z,70.09
2022-10-08T10:09:34.930Z,68.64
2022-10-08T10:10:35.032Z,72.19
2022-10-08T10:11:34.970Z,70.25
2022-10-08T10:12:34.983Z,68.32
2022-10-08T10:13:34.924Z,66.87
2022-10-08T10:14:35.129Z,67.68
2022-10-08T10:15:35.011Z,68.64
2022-10-08T10:16:35.018Z,68.00
2022-10-08T10:17:34.973Z,69.93
2022-10-08T10:18:34.964Z,70.74
2022-10-08T10:19:34.960Z,71.70
2022-10-08T10:20:34.856Z,69.93
2022-10-08T10:21:34.968Z,69.13
2022-10-08T10:22:34.883Z,70.74
2022-10-08T10:23:35.840Z,70.90
2022-10-08T10:24:34.891Z,71.38
2022-10-08T10:25:34.848Z,71.70
2022-10-08T10:26:34.831Z,68.64
2022-10-08T10:27:35.220Z,70.74
2022-10-08T10:28:34.818Z,69.13
2022-10-08T10:29:34.796Z,71.38
2022-10-08T10:30:34.915Z,68.16
2022-10-08T10:31:34.758Z,69.61
2022-10-08T10:32:34.783Z,69.61
2022-10-08T10:33:34.772Z,68.32
2022-10-08T10:34:34.732Z,69.77
2022-10-08T10:35:34.797Z,69.77
2022-10-08T10:36:34.712Z,69.61
2022-10-08T10:37:34.731Z,67.03
2022-10-08T10:38:36.069Z,71.87
2022-10-08T10:39:34.684Z,68.80
2022-10-08T10:40:34.672Z,67.35
2022-10-08T10:41:35.209Z,71.06
2022-10-08T10:42:34.729Z,70.58
2022-10-08T10:43:34.653Z,68.00
2022-10-08T10:44:34.612Z,68.16
2022-10-08T10:45:34.674Z,67.03
2022-10-08T10:46:34.646Z,72.99
2022-10-08T10:47:34.526Z,67.51
2022-10-08T10:48:34.992Z,69.13
2022-10-08T10:49:34.723Z,69.45
2022-10-08T10:50:34.520Z,71.38
2022-10-08T10:51:34.586Z,68.80
2022-10-08T10:52:34.611Z,65.42
2022-10-08T10:53:34.522Z,69.29
2022-10-08T10:54:34.601Z,69.13
2022-10-08T10:55:35.384Z,69.13
2022-10-08T10:56:34.488Z,66.55
2022-10-08T10:57:34.407Z,69.93
2022-10-08T10:58:34.891Z,69.13
2022-10-08T10:59:35.073Z,69.77
2022-10-08T11:00:37.325Z,66.55
2022-10-08T11:01:34.795Z,67.03
2022-10-08T11:02:34.566Z,68.96
2022-10-08T11:03:34.554Z,68.96
2022-10-08T11:04:34.466Z,69.13
2022-10-08T11:05:34.350Z,70.09
2022-10-08T11:06:34.569Z,66.23
2022-10-08T11:07:35.202Z,68.96
2022-10-08T11:08:34.305Z,70.74
2022-10-08T11:09:34.325Z,70.25
2022-10-08T11:10:34.476Z,69.93
2022-10-08T11:11:34.324Z,69.61
2022-10-08T11:12:34.388Z,65.74
2022-10-08T11:13:35.274Z,68.32
2022-10-08T11:14:35.501Z,66.87
2022-10-08T11:15:34.240Z,69.45
2022-10-08T11:16:34.257Z,71.70
2022-10-08T11:17:34.545Z,68.64
2022-10-08T11:18:34.188Z,65.90
2022-10-08T11:19:34.173Z,70.25
2022-10-08T11:20:34.174Z,70.58
2022-10-08T11:21:34.315Z,68.96
2022-10-08T11:22:34.222Z,71.38
2022-10-08T11:23:34.246Z,68.64
2022-10-08T11:24:34.079Z,70.09
2022-10-08T11:25:49.755Z,68.16
2022-10-08T11:26:36.154Z,70.74
2022-10-08T11:27:34.112Z,69.77
2022-10-08T11:28:34.171Z,68.64
2022-10-08T11:29:34.543Z,69.13
2022-10-08T11:30:34.131Z,69.29
2022-10-08T11:31:34.022Z,66.87
2022-10-08T11:32:34.007Z,67.68
2022-10-08T11:33:34.055Z,68.80
2022-10-08T11:34:34.003Z,67.35
2022-10-08T11:35:33.996Z,69.93
2022-10-08T11:36:33.931Z,72.03
2022-10-08T11:37:33.947Z,70.09
2022-10-08T11:38:34.047Z,67.35
2022-10-08T11:39:33.908Z,68.32
2022-10-08T11:40:34.388Z,66.06
2022-10-08T11:41:33.980Z,67.35
2022-10-08T11:42:39.925Z,68.16
2022-10-08T11:43:35.856Z,69.77
2022-10-08T11:44:33.952Z,68.16
2022-10-08T11:45:33.858Z,70.42
2022-10-08T11:46:33.901Z,68.96
2022-10-08T11:47:34.984Z,69.61
2022-10-08T11:48:33.828Z,67.35
2022-10-08T11:49:33.842Z,67.84
2022-10-08T11:50:33.782Z,68.48
2022-10-08T11:51:33.777Z,70.42
2022-10-08T11:52:33.874Z,67.19
2022-10-08T11:53:33.780Z,68.48
2022-10-08T11:54:34.051Z,68.00
2022-10-08T11:55:33.736Z,69.45
2022-10-08T11:56:33.877Z,68.80
2022-10-08T11:58:35.756Z,69.13
2022-10-08T11:59:34.048Z,67.35
2022-10-08T12:00:33.796Z,63.33
2022-10-08T12:01:33.685Z,68.32
2022-10-08T12:02:33.844Z,69.93
2022-10-08T12:03:34.020Z,68.32
2022-10-08T12:04:33.636Z,68.16
2022-10-08T12:05:34.249Z,68.00
2022-10-08T12:06:33.744Z,68.64
2022-10-08T12:07:33.749Z,70.25
2022-10-08T12:08:33.781Z,71.70
2022-10-08T12:09:33.544Z,67.68
2022-10-08T12:10:33.595Z,69.13
2022-10-08T12:11:33.572Z,68.96
2022-10-08T12:12:33.976Z,69.29
2022-10-08T12:13:33.537Z,67.68
2022-10-08T12:14:33.540Z,70.25
2022-10-08T12:15:34.439Z,66.87
2022-10-08T12:16:33.574Z,67.68
2022-10-08T12:17:33.441Z,67.68
2022-10-08T12:18:33.465Z,69.61
2022-10-08T12:19:33.617Z,70.09
2022-10-08T12:20:33.569Z,66.39
2022-10-08T12:21:33.385Z,68.00
2022-10-08T12:22:33.461Z,70.42
2022-10-08T12:23:33.664Z,68.48
2022-10-08T12:24:33.438Z,63.00
2022-10-08T12:25:33.428Z,66.87
2022-10-08T12:26:33.553Z,68.00
2022-10-08T12:27:33.369Z,66.06
2022-10-08T12:28:34.201Z,64.45
2022-10-08T12:29:33.338Z,66.71
2022-10-08T12:30:33.717Z,68.16
2022-10-08T12:31:33.314Z,66.39
2022-10-08T12:32:33.238Z,67.19
2022-10-08T12:33:33.247Z,65.90
2022-10-08T12:34:33.285Z,62.84
2022-10-08T12:35:33.218Z,65.42
2022-10-08T12:36:33.211Z,66.55
2022-10-08T12:37:33.406Z,67.51
2022-10-08T12:38:33.175Z,63.81
2022-10-08T12:39:33.203Z,65.90
2022-10-08T12:40:33.259Z,64.78
2022-10-08T12:41:33.162Z,69.13
2022-10-08T12:42:33.306Z,66.23
2022-10-08T12:43:33.114Z,67.51
2022-10-08T12:44:33.163Z,64.78
2022-10-08T12:45:33.106Z,66.55
2022-10-08T12:46:33.111Z,66.71
2022-10-08T12:47:33.088Z,63.97
2022-10-08T12:48:33.360Z,62.36
2022-10-08T12:49:33.126Z,63.33
2022-10-08T12:50:33.355Z,67.68
2022-10-08T12:51:33.019Z,67.03
2022-10-08T12:52:33.576Z,65.58
2022-10-08T12:53:33.018Z,63.33